Shore Acres, Washington
Current Conditions -  °F | °C
As of 4:53 AM on Friday 19 Dec 2014 (Local Time) from KTIW Reporting Station
Broken Clouds Broken Clouds  
Wind Chill: 41°   Ceiling: 10000
Heat Index: 47°   Visibility: 10mi
Dew Point: 43°   Wind: 13mph
Humidity: 86%   Direction: 180°S
Pressure: 29.83"   Gusts: 22mph
Location:  47.2986°N, 122.616°W
Report Text: KTIW 191253Z AUTO 18011G19KT 10SM BKN100 08/06 A2983 RMK AO2 SLP103 T00830061
Loading
Personal Weather Stations






























Interactive Weather Map New forecast layout! Learn more

10-Day Weather Forecast

Advertisements
Track Severe Weather on mobile